createdAt,value
2019-03-12T00:00:40.939Z,1021.72
2019-03-12T00:01:40.939Z,1021.70
2019-03-12T00:02:40.899Z,1021.68
2019-03-12T00:03:40.875Z,1021.64
2019-03-12T00:04:40.846Z,1021.67
2019-03-12T00:05:40.971Z,1021.65
2019-03-12T00:06:40.809Z,1021.67
2019-03-12T00:07:40.783Z,1021.66
2019-03-12T00:08:40.756Z,1021.69
2019-03-12T00:09:40.735Z,1021.66
2019-03-12T00:10:40.711Z,1021.65
2019-03-12T00:11:40.715Z,1021.64
2019-03-12T00:12:40.671Z,1021.67
2019-03-12T00:13:40.643Z,1021.69
2019-03-12T00:14:40.694Z,1021.69
2019-03-12T00:15:40.606Z,1021.67
2019-03-12T00:16:40.580Z,1021.62
2019-03-12T00:17:40.569Z,1021.59
2019-03-12T00:18:40.525Z,1021.54
2019-03-12T00:19:40.507Z,1021.53
2019-03-12T00:20:40.488Z,1021.51
2019-03-12T00:21:40.475Z,1021.49
2019-03-12T00:22:40.439Z,1021.48
2019-03-12T00:23:40.416Z,1021.48
2019-03-12T00:24:40.390Z,1021.44
2019-03-12T00:25:40.365Z,1021.43
2019-03-12T00:26:40.347Z,1021.39
2019-03-12T00:27:40.336Z,1021.37
2019-03-12T00:28:40.325Z,1021.43
2019-03-12T00:29:40.290Z,1021.42
2019-03-12T00:30:40.253Z,1021.46
2019-03-12T00:31:40.228Z,1021.46
2019-03-12T00:32:40.204Z,1021.45
2019-03-12T00:33:40.179Z,1021.43
2019-03-12T00:34:40.171Z,1021.40
2019-03-12T00:35:40.135Z,1021.40
2019-03-12T00:36:40.110Z,1021.43
2019-03-12T00:37:40.087Z,1021.42
2019-03-12T00:38:40.075Z,1021.42
2019-03-12T00:39:40.064Z,1021.39
2019-03-12T00:40:40.026Z,1021.40
2019-03-12T00:41:40.001Z,1021.41
2019-03-12T00:42:39.972Z,1021.41
2019-03-12T00:43:39.959Z,1021.44
2019-03-12T00:44:39.947Z,1021.44
2019-03-12T00:45:39.912Z,1021.45
2019-03-12T00:46:39.905Z,1021.45
2019-03-12T00:47:39.870Z,1021.47
2019-03-12T00:48:39.838Z,1021.47
2019-03-12T00:49:39.821Z,1021.46
2019-03-12T00:50:39.797Z,1021.45
2019-03-12T00:51:39.768Z,1021.47
2019-03-12T00:52:39.763Z,1021.45
2019-03-12T00:53:39.725Z,1021.45
2019-03-12T00:54:39.704Z,1021.44
2019-03-12T00:55:39.677Z,1021.41
2019-03-12T00:56:39.669Z,1021.41
2019-03-12T00:57:39.627Z,1021.40
2019-03-12T00:58:39.608Z,1021.45
2019-03-12T00:59:39.582Z,1021.43
2019-03-12T01:00:39.670Z,1021.38
2019-03-12T01:01:39.562Z,1021.38
2019-03-12T01:02:39.533Z,1021.39
2019-03-12T01:03:39.493Z,1021.45
2019-03-12T01:04:39.464Z,1021.48
2019-03-12T01:05:39.444Z,1021.42
2019-03-12T01:06:39.427Z,1021.42
2019-03-12T01:07:39.404Z,1021.43
2019-03-12T01:08:39.390Z,1021.42
2019-03-12T01:09:39.422Z,1021.42
2019-03-12T01:10:39.328Z,1021.42
2019-03-12T01:11:39.322Z,1021.37
2019-03-12T01:12:39.297Z,1021.32
2019-03-12T01:13:39.271Z,1021.37
2019-03-12T01:14:39.236Z,1021.38
2019-03-12T01:15:39.213Z,1021.41
2019-03-12T01:16:39.191Z,1021.44
2019-03-12T01:17:39.180Z,1021.41
2019-03-12T01:18:39.160Z,1021.43
2019-03-12T01:19:39.132Z,1021.38
2019-03-12T01:20:39.098Z,1021.35
2019-03-12T01:21:39.077Z,1021.33
2019-03-12T01:22:39.051Z,1021.26
2019-03-12T01:23:39.028Z,1021.27
2019-03-12T01:24:39.019Z,1021.24
2019-03-12T01:25:38.987Z,1021.21
2019-03-12T01:26:38.979Z,1021.22
2019-03-12T01:27:38.939Z,1021.19
2019-03-12T01:28:38.914Z,1021.23
2019-03-12T01:29:38.888Z,1021.25
2019-03-12T01:30:38.867Z,1021.23
2019-03-12T01:31:38.844Z,1021.23
2019-03-12T01:32:38.838Z,1021.21
2019-03-12T01:33:38.796Z,1021.18
2019-03-12T01:34:38.775Z,1021.14
2019-03-12T01:35:38.750Z,1021.15
2019-03-12T01:36:38.747Z,1021.11
2019-03-12T01:37:38.706Z,1021.10
2019-03-12T01:38:38.683Z,1021.05
2019-03-12T01:39:38.659Z,1021.04
2019-03-12T01:40:38.635Z,1021.01
2019-03-12T01:41:38.613Z,1021.05
2019-03-12T01:42:38.608Z,1021.04
2019-03-12T01:43:38.566Z,1021.06
2019-03-12T01:44:38.548Z,1021.05
2019-03-12T01:45:38.542Z,1020.99
2019-03-12T01:46:38.502Z,1021.02
2019-03-12T01:47:38.493Z,1021.00
2019-03-12T01:48:38.468Z,1020.99
2019-03-12T01:49:38.430Z,1020.97
2019-03-12T01:50:38.407Z,1020.94
2019-03-12T01:51:38.384Z,1020.92
2019-03-12T01:52:38.359Z,1020.89
2019-03-12T01:53:38.360Z,1020.85
2019-03-12T01:54:38.316Z,1020.85
2019-03-12T01:55:38.291Z,1020.82
2019-03-12T01:56:38.267Z,1020.76
2019-03-12T01:57:38.240Z,1020.79
2019-03-12T01:58:38.225Z,1020.75
2019-03-12T01:59:38.210Z,1020.77
2019-03-12T02:00:38.175Z,1020.80
2019-03-12T02:01:38.166Z,1020.76
2019-03-12T02:02:38.129Z,1020.76
2019-03-12T02:03:38.131Z,1020.69
2019-03-12T02:04:38.094Z,1020.62
2019-03-12T02:05:38.059Z,1020.61
2019-03-12T02:06:38.035Z,1020.57
2019-03-12T02:07:38.013Z,1020.58
2019-03-12T02:08:37.991Z,1020.54
2019-03-12T02:09:37.983Z,1020.53
2019-03-12T02:10:37.962Z,1020.57
2019-03-12T02:11:37.924Z,1020.57
2019-03-12T02:12:37.902Z,1020.53
2019-03-12T02:13:37.876Z,1020.49
2019-03-12T02:14:38.413Z,1020.48
2019-03-12T02:15:37.833Z,1020.49
2019-03-12T02:16:37.830Z,1020.44
2019-03-12T02:17:37.799Z,1020.43
2019-03-12T02:18:38.382Z,1020.37
2019-03-12T02:19:37.736Z,1020.36
2019-03-12T02:20:37.713Z,1020.36
2019-03-12T02:21:37.694Z,1020.29
2019-03-12T02:22:37.774Z,1020.28
2019-03-12T02:23:37.647Z,1020.28
2019-03-12T02:24:37.622Z,1020.22
2019-03-12T02:25:37.621Z,1020.19
2019-03-12T02:26:37.577Z,1020.13
2019-03-12T02:27:37.556Z,1020.13
2019-03-12T02:28:37.551Z,1020.09
2019-03-12T02:29:37.513Z,1020.12
2019-03-12T02:30:37.489Z,1020.11
2019-03-12T02:31:37.463Z,1020.11
2019-03-12T02:32:37.436Z,1020.08
2019-03-12T02:33:37.520Z,1020.11
2019-03-12T02:34:37.456Z,1020.10
2019-03-12T02:35:37.381Z,1020.11
2019-03-12T02:36:37.482Z,1020.10
2019-03-12T02:37:37.921Z,1020.10
2019-03-12T02:38:37.312Z,1020.08
2019-03-12T02:39:37.300Z,1020.10
2019-03-12T02:40:37.267Z,1020.06
2019-03-12T02:41:37.237Z,1020.12
2019-03-12T02:42:37.215Z,1020.07
2019-03-12T02:43:37.212Z,1020.07
2019-03-12T02:44:37.171Z,1020.07
2019-03-12T02:45:37.139Z,1020.04
2019-03-12T02:46:37.174Z,1020.06
2019-03-12T02:47:37.099Z,1020.08
2019-03-12T02:48:37.074Z,1020.07
2019-03-12T02:49:37.216Z,1020.04
2019-03-12T02:50:37.893Z,1020.07
2019-03-12T02:51:37.020Z,1020.02
2019-03-12T02:52:36.980Z,1020.02
2019-03-12T02:53:36.962Z,1020.04
2019-03-12T02:54:36.952Z,1020.04
2019-03-12T02:55:36.913Z,1020.09
2019-03-12T02:56:36.903Z,1020.07
2019-03-12T02:57:36.868Z,1020.07
2019-03-12T02:58:36.839Z,1020.04
2019-03-12T02:59:36.836Z,1020.06
2019-03-12T03:00:36.815Z,1020.02
2019-03-12T03:01:36.774Z,1019.99
2019-03-12T03:02:36.758Z,1019.96
2019-03-12T03:03:36.725Z,1019.94
2019-03-12T03:04:36.710Z,1019.94
2019-03-12T03:05:36.687Z,1019.99
2019-03-12T03:06:36.672Z,1019.94
2019-03-12T03:07:36.637Z,1019.95
2019-03-12T03:08:36.612Z,1019.95
2019-03-12T03:09:36.588Z,1019.92
2019-03-12T03:10:36.563Z,1019.90
2019-03-12T03:11:36.541Z,1019.92
2019-03-12T03:12:36.537Z,1019.94
2019-03-12T03:13:36.512Z,1019.92
2019-03-12T03:14:36.473Z,1019.88
2019-03-12T03:15:36.448Z,1019.87
2019-03-12T03:16:36.428Z,1019.89
2019-03-12T03:17:36.409Z,1019.85
2019-03-12T03:18:36.381Z,1019.83
2019-03-12T03:19:36.388Z,1019.87
2019-03-12T03:20:36.335Z,1019.88
2019-03-12T03:21:36.311Z,1019.83
2019-03-12T03:22:36.295Z,1019.80
2019-03-12T03:23:36.265Z,1019.82
2019-03-12T03:24:36.242Z,1019.81
2019-03-12T03:25:36.400Z,1019.82
2019-03-12T03:26:36.198Z,1019.85
2019-03-12T03:27:36.174Z,1019.83
2019-03-12T03:28:36.149Z,1019.87
2019-03-12T03:29:36.129Z,1019.82
2019-03-12T03:30:36.132Z,1019.80
2019-03-12T03:31:36.087Z,1019.77
2019-03-12T03:32:36.055Z,1019.82
2019-03-12T03:33:36.034Z,1019.83
2019-03-12T03:34:36.010Z,1019.82
2019-03-12T03:35:35.991Z,1019.80
2019-03-12T03:36:35.983Z,1019.82
2019-03-12T03:37:35.947Z,1019.76
2019-03-12T03:38:35.936Z,1019.72
2019-03-12T03:39:35.895Z,1019.68
2019-03-12T03:40:35.871Z,1019.70
2019-03-12T03:41:35.937Z,1019.68
2019-03-12T03:42:35.835Z,1019.66
2019-03-12T03:43:35.869Z,1019.68
2019-03-12T03:44:35.778Z,1019.65
2019-03-12T03:45:35.753Z,1019.67
2019-03-12T03:46:35.732Z,1019.64
2019-03-12T03:47:35.707Z,1019.61
2019-03-12T03:48:35.686Z,1019.61
2019-03-12T03:49:35.677Z,1019.56
2019-03-12T03:50:35.638Z,1019.56
2019-03-12T03:51:35.615Z,1019.54
2019-03-12T03:52:35.593Z,1019.54
2019-03-12T03:53:35.573Z,1019.54
2019-03-12T03:54:35.553Z,1019.51
2019-03-12T03:55:35.546Z,1019.56
2019-03-12T03:56:35.492Z,1019.54
2019-03-12T03:57:35.468Z,1019.53
2019-03-12T03:58:35.453Z,1019.48
2019-03-12T03:59:35.432Z,1019.51
2019-03-12T04:00:35.412Z,1019.49
2019-03-12T04:01:35.398Z,1019.48
2019-03-12T04:02:35.357Z,1019.49
2019-03-12T04:03:35.352Z,1019.48
2019-03-12T04:04:35.309Z,1019.49
2019-03-12T04:05:35.286Z,1019.46
2019-03-12T04:06:35.282Z,1019.45
2019-03-12T04:07:35.238Z,1019.40
2019-03-12T04:08:35.217Z,1019.34
2019-03-12T04:09:35.197Z,1019.34
2019-03-12T04:10:35.171Z,1019.30
2019-03-12T04:11:35.162Z,1019.32
2019-03-12T04:12:35.195Z,1019.37
2019-03-12T04:13:35.106Z,1019.36
2019-03-12T04:14:35.077Z,1019.34
2019-03-12T04:15:35.061Z,1019.32
2019-03-12T04:16:35.067Z,1019.31
2019-03-12T04:17:35.034Z,1019.26
2019-03-12T04:18:35.006Z,1019.27
2019-03-12T04:19:34.965Z,1019.22
2019-03-12T04:20:34.959Z,1019.20
2019-03-12T04:21:34.921Z,1019.18
2019-03-12T04:22:34.905Z,1019.15
2019-03-12T04:23:34.872Z,1019.17
2019-03-12T04:24:34.849Z,1019.15
2019-03-12T04:25:34.823Z,1019.19
2019-03-12T04:26:34.838Z,1019.14
2019-03-12T04:27:34.777Z,1019.08
2019-03-12T04:28:34.757Z,1019.07
2019-03-12T04:29:34.733Z,1019.06
2019-03-12T04:30:34.710Z,1019.08
2019-03-12T04:31:34.690Z,1019.08
2019-03-12T04:32:34.696Z,1019.12
2019-03-12T04:33:34.638Z,1019.07
2019-03-12T04:34:34.611Z,1019.09
2019-03-12T04:35:34.593Z,1019.04
2019-03-12T04:36:34.571Z,1019.07
2019-03-12T04:37:34.547Z,1019.05
2019-03-12T04:38:34.546Z,1018.96
2019-03-12T04:39:34.519Z,1018.96
2019-03-12T04:40:34.496Z,1018.96
2019-03-12T04:41:34.451Z,1018.92
2019-03-12T04:42:34.433Z,1018.96
2019-03-12T04:43:34.428Z,1018.91
2019-03-12T04:44:34.388Z,1018.88
2019-03-12T04:45:34.361Z,1018.86
2019-03-12T04:46:34.346Z,1018.87
2019-03-12T04:47:34.319Z,1018.82
2019-03-12T04:48:34.296Z,1018.82
2019-03-12T04:49:34.294Z,1018.77
2019-03-12T04:50:34.274Z,1018.77
2019-03-12T04:51:34.226Z,1018.70
2019-03-12T04:52:34.200Z,1018.71
2019-03-12T04:53:37.344Z,1018.67
2019-03-12T04:54:34.157Z,1018.67
2019-03-12T04:55:34.134Z,1018.66
2019-03-12T04:56:34.125Z,1018.63
2019-03-12T04:57:34.087Z,1018.58
2019-03-12T04:58:34.071Z,1018.53
2019-03-12T04:59:34.040Z,1018.57
2019-03-12T05:00:34.018Z,1018.53
2019-03-12T05:01:34.011Z,1018.55
2019-03-12T05:02:33.979Z,1018.54
2019-03-12T05:03:33.953Z,1018.53
2019-03-12T05:04:33.927Z,1018.53
2019-03-12T05:05:33.908Z,1018.54
2019-03-12T05:06:33.882Z,1018.50
2019-03-12T05:07:33.871Z,1018.48
2019-03-12T05:08:33.852Z,1018.46
2019-03-12T05:09:33.817Z,1018.42
2019-03-12T05:10:33.790Z,1018.45
2019-03-12T05:11:33.765Z,1018.38
2019-03-12T05:12:33.744Z,1018.40
2019-03-12T05:13:33.742Z,1018.35
2019-03-12T05:14:33.699Z,1018.42
2019-03-12T05:15:34.399Z,1018.42
2019-03-12T05:16:33.652Z,1018.40
2019-03-12T05:17:33.630Z,1018.41
2019-03-12T05:18:33.627Z,1018.43
2019-03-12T05:19:33.590Z,1018.43
2019-03-12T05:20:33.553Z,1018.41
2019-03-12T05:21:33.539Z,1018.37
2019-03-12T05:22:33.518Z,1018.31
2019-03-12T05:23:33.515Z,1018.32
2019-03-12T05:24:33.487Z,1018.32
2019-03-12T05:25:33.470Z,1018.37
2019-03-12T05:26:33.425Z,1018.36
2019-03-12T05:27:33.400Z,1018.29
2019-03-12T05:28:33.393Z,1018.31
2019-03-12T05:29:33.360Z,1018.30
2019-03-12T05:30:33.350Z,1018.23
2019-03-12T05:31:33.312Z,1018.24
2019-03-12T05:32:33.294Z,1018.25
2019-03-12T05:33:33.263Z,1018.23
2019-03-12T05:34:33.243Z,1018.17
2019-03-12T05:35:33.222Z,1018.23
2019-03-12T05:36:33.217Z,1018.20
2019-03-12T05:37:33.174Z,1018.20
2019-03-12T05:38:33.152Z,1018.16
2019-03-12T05:39:33.412Z,1018.15
2019-03-12T05:40:33.125Z,1018.08
2019-03-12T05:41:33.081Z,1018.13
2019-03-12T05:42:33.059Z,1018.08
2019-03-12T05:43:33.037Z,1018.08
2019-03-12T05:44:33.015Z,1018.09
2019-03-12T05:45:32.993Z,1018.04
2019-03-12T05:46:33.008Z,1018.07
2019-03-12T05:47:32.949Z,1018.00
2019-03-12T05:48:32.931Z,1018.00
2019-03-12T05:49:32.902Z,1018.00
2019-03-12T05:50:32.884Z,1018.00
2019-03-12T05:51:32.868Z,1017.96
2019-03-12T05:52:32.851Z,1017.93
2019-03-12T05:53:32.830Z,1017.97
2019-03-12T05:54:32.791Z,1017.97
2019-03-12T05:55:32.768Z,1017.97
2019-03-12T05:56:32.742Z,1017.94
2019-03-12T05:57:32.720Z,1017.93
2019-03-12T05:58:32.696Z,1017.92
2019-03-12T05:59:32.700Z,1017.83
2019-03-12T06:00:32.655Z,1017.87
2019-03-12T06:01:32.633Z,1017.85
2019-03-12T06:02:32.616Z,1017.83
2019-03-12T06:03:32.601Z,1017.87
2019-03-12T06:04:32.579Z,1017.85
2019-03-12T06:05:32.555Z,1017.82
2019-03-12T06:06:32.520Z,1017.83
2019-03-12T06:07:32.499Z,1017.76
2019-03-12T06:08:32.472Z,1017.76
2019-03-12T06:09:32.451Z,1017.76
2019-03-12T06:10:32.443Z,1017.73
2019-03-12T06:11:32.429Z,1017.71
2019-03-12T06:12:32.404Z,1017.72
2019-03-12T06:13:32.369Z,1017.67
2019-03-12T06:14:32.337Z,1017.71
2019-03-12T06:15:32.324Z,1017.68
2019-03-12T06:16:32.307Z,1017.59
2019-03-12T06:17:32.279Z,1017.62
2019-03-12T06:18:32.267Z,1017.63
2019-03-12T06:19:32.222Z,1017.61
2019-03-12T06:20:32.196Z,1017.57
2019-03-12T06:21:32.188Z,1017.59
2019-03-12T06:22:32.156Z,1017.58
2019-03-12T06:23:32.153Z,1017.58
2019-03-12T06:24:32.110Z,1017.55
2019-03-12T06:25:32.090Z,1017.53
2019-03-12T06:26:32.080Z,1017.54
2019-03-12T06:27:32.057Z,1017.49
2019-03-12T06:28:32.054Z,1017.50
2019-03-12T06:29:31.998Z,1017.47
2019-03-12T06:30:31.976Z,1017.49
2019-03-12T06:31:31.954Z,1017.44
2019-03-12T06:32:31.928Z,1017.45
2019-03-12T06:33:31.905Z,1017.37
2019-03-12T06:34:31.901Z,1017.36
2019-03-12T06:35:31.865Z,1017.39
2019-03-12T06:36:31.841Z,1017.33
2019-03-12T06:37:31.819Z,1017.31
2019-03-12T06:38:31.811Z,1017.32
2019-03-12T06:39:31.774Z,1017.30
2019-03-12T06:40:31.766Z,1017.28
2019-03-12T06:41:31.732Z,1017.22
2019-03-12T06:42:31.731Z,1017.22
2019-03-12T06:43:31.687Z,1017.23
2019-03-12T06:44:31.663Z,1017.18
2019-03-12T06:45:31.636Z,1017.19
2019-03-12T06:46:31.620Z,1017.17
2019-03-12T06:47:31.598Z,1017.17
2019-03-12T06:48:31.589Z,1017.16
2019-03-12T06:49:31.559Z,1017.17
2019-03-12T06:50:31.526Z,1017.12
2019-03-12T06:51:31.507Z,1017.12
2019-03-12T06:52:31.481Z,1017.10
2019-03-12T06:53:31.464Z,1017.12
2019-03-12T06:54:31.457Z,1017.07
2019-03-12T06:55:31.420Z,1017.06
2019-03-12T06:56:31.402Z,1016.98
2019-03-12T06:57:31.544Z,1016.98
2019-03-12T06:58:31.346Z,1016.97
2019-03-12T06:59:31.345Z,1016.90
2019-03-12T07:00:31.317Z,1016.89
2019-03-12T07:01:31.280Z,1016.91
2019-03-12T07:02:31.260Z,1016.87
2019-03-12T07:03:31.240Z,1016.89
2019-03-12T07:04:31.217Z,1016.92
2019-03-12T07:05:31.218Z,1016.88
2019-03-12T07:06:31.190Z,1016.86
2019-03-12T07:07:31.148Z,1016.88
2019-03-12T07:08:31.130Z,1016.92
2019-03-12T07:09:31.120Z,1016.88
2019-03-12T07:10:31.087Z,1016.91
2019-03-12T07:11:31.058Z,1016.92
2019-03-12T07:12:31.034Z,1016.89
2019-03-12T07:13:31.011Z,1016.96
2019-03-12T07:14:31.000Z,1016.94
2019-03-12T07:15:31.007Z,1016.95
2019-03-12T07:16:30.949Z,1016.93
2019-03-12T07:17:30.927Z,1016.89
2019-03-12T07:18:30.927Z,1016.86
2019-03-12T07:19:30.876Z,1016.83
2019-03-12T07:20:30.860Z,1016.81
2019-03-12T07:21:30.837Z,1016.80
2019-03-12T07:22:30.821Z,1016.80
2019-03-12T07:23:30.796Z,1016.81
2019-03-12T07:24:30.787Z,1016.82
2019-03-12T07:25:30.758Z,1016.77
2019-03-12T07:26:30.726Z,1016.79
2019-03-12T07:27:30.713Z,1016.79
2019-03-12T07:28:30.682Z,1016.75
2019-03-12T07:29:30.662Z,1016.73
2019-03-12T07:30:30.657Z,1016.74
2019-03-12T07:31:30.617Z,1016.70
2019-03-12T07:32:30.593Z,1016.65
2019-03-12T07:33:30.576Z,1016.62
2019-03-12T07:34:36.644Z,1016.63
2019-03-12T07:35:30.561Z,1016.60
2019-03-12T07:36:30.509Z,1016.63
2019-03-12T07:37:30.490Z,1016.62
2019-03-12T07:38:30.468Z,1016.54
2019-03-12T07:39:30.439Z,1016.47
2019-03-12T07:40:30.449Z,1016.45
2019-03-12T07:41:32.717Z,1016.46
2019-03-12T07:42:30.378Z,1016.42
2019-03-12T07:43:30.436Z,1016.38
2019-03-12T07:44:30.347Z,1016.43
2019-03-12T07:45:30.311Z,1016.38
2019-03-12T07:46:30.309Z,1016.33
2019-03-12T07:47:35.738Z,1016.37
2019-03-12T07:48:30.250Z,1016.29
2019-03-12T07:49:30.239Z,1016.26
2019-03-12T07:50:30.239Z,1016.30
2019-03-12T07:51:30.200Z,1016.29
2019-03-12T07:52:30.163Z,1016.27
2019-03-12T07:53:30.154Z,1016.25
2019-03-12T07:54:30.133Z,1016.12
2019-03-12T07:55:30.101Z,1016.10
2019-03-12T07:56:30.093Z,1016.02
2019-03-12T07:57:30.083Z,1015.85
2019-03-12T07:58:35.596Z,1015.92
2019-03-12T07:59:30.018Z,1015.85
2019-03-12T08:00:29.991Z,1015.85
2019-03-12T08:01:29.970Z,1015.80
2019-03-12T08:02:29.963Z,1015.82
2019-03-12T08:03:29.927Z,1015.78
2019-03-12T08:04:29.928Z,1015.76
2019-03-12T08:05:29.885Z,1015.75
2019-03-12T08:06:29.869Z,1015.80
2019-03-12T08:07:29.837Z,1015.79
2019-03-12T08:08:29.835Z,1015.75
2019-03-12T08:09:29.795Z,1015.72
2019-03-12T08:10:29.778Z,1015.62
2019-03-12T08:11:29.754Z,1015.63
2019-03-12T08:12:29.732Z,1015.63
2019-03-12T08:13:29.722Z,1015.67
2019-03-12T08:14:29.687Z,1015.71
2019-03-12T08:15:29.679Z,1015.63
2019-03-12T08:16:29.655Z,1015.65
2019-03-12T08:17:29.631Z,1015.64
2019-03-12T08:18:29.651Z,1015.61
2019-03-12T08:19:29.584Z,1015.58
2019-03-12T08:20:29.561Z,1015.62
2019-03-12T08:21:29.541Z,1015.61
2019-03-12T08:22:29.523Z,1015.61
2019-03-12T08:23:29.505Z,1015.53
2019-03-12T08:24:29.496Z,1015.52
2019-03-12T08:25:29.498Z,1015.48
2019-03-12T08:26:29.435Z,1015.43
2019-03-12T08:27:29.413Z,1015.42
2019-03-12T08:28:29.390Z,1015.42
2019-03-12T08:29:29.379Z,1015.39
2019-03-12T08:30:29.349Z,1015.27
2019-03-12T08:31:29.363Z,1015.29
2019-03-12T08:32:29.304Z,1015.22
2019-03-12T08:33:29.288Z,1015.11
2019-03-12T08:34:29.270Z,1015.19
2019-03-12T08:35:29.250Z,1015.11
2019-03-12T08:36:29.248Z,1015.16
2019-03-12T08:37:29.204Z,1015.17
2019-03-12T08:38:29.267Z,1015.02
2019-03-12T08:39:29.165Z,1015.03
2019-03-12T08:40:29.142Z,1015.00
2019-03-12T08:41:29.133Z,1015.01
2019-03-12T08:42:29.108Z,1015.01
2019-03-12T08:43:29.075Z,1015.04
2019-03-12T08:44:29.058Z,1015.02
2019-03-12T08:45:29.035Z,1015.05
2019-03-12T08:46:29.018Z,1014.97
2019-03-12T08:47:29.014Z,1014.95
2019-03-12T08:48:28.988Z,1015.00
2019-03-12T08:49:28.949Z,1014.95
2019-03-12T08:50:28.945Z,1014.96
2019-03-12T08:51:28.912Z,1014.94
2019-03-12T08:52:28.885Z,1014.83
2019-03-12T08:53:28.864Z,1014.88
2019-03-12T08:54:28.866Z,1014.90
2019-03-12T08:55:28.831Z,1014.85
2019-03-12T08:56:28.809Z,1014.80
2019-03-12T08:57:28.790Z,1014.84
2019-03-12T08:58:28.764Z,1014.87
2019-03-12T08:59:28.745Z,1014.69
2019-03-12T09:00:28.739Z,1014.71
2019-03-12T09:01:28.701Z,1014.67
2019-03-12T09:02:28.687Z,1014.70
2019-03-12T09:03:28.670Z,1014.66
2019-03-12T09:04:28.675Z,1014.69
2019-03-12T09:05:28.632Z,1014.63
2019-03-12T09:06:28.598Z,1014.62
2019-03-12T09:07:28.587Z,1014.64
2019-03-12T09:08:28.559Z,1014.53
2019-03-12T09:09:28.552Z,1014.58
2019-03-12T09:10:28.537Z,1014.48
2019-03-12T09:11:28.498Z,1014.47
2019-03-12T09:12:28.477Z,1014.45
2019-03-12T09:13:28.456Z,1014.36
2019-03-12T09:14:28.455Z,1014.39
2019-03-12T09:15:28.438Z,1014.43
2019-03-12T09:16:28.400Z,1014.32
2019-03-12T09:17:28.387Z,1014.35
2019-03-12T09:18:28.353Z,1014.31
2019-03-12T09:19:28.349Z,1014.30
2019-03-12T09:20:28.313Z,1014.25
2019-03-12T09:21:28.326Z,1014.32
2019-03-12T09:22:28.274Z,1014.28
2019-03-12T09:23:28.271Z,1014.24
2019-03-12T09:24:28.238Z,1014.16
2019-03-12T09:25:28.214Z,1014.08
2019-03-12T09:26:28.213Z,1014.06
2019-03-12T09:27:28.171Z,1014.11
2019-03-12T09:28:28.185Z,1014.07
2019-03-12T09:29:28.136Z,1013.94
2019-03-12T09:30:28.125Z,1013.96
2019-03-12T09:31:28.092Z,1013.95
2019-03-12T09:32:28.091Z,1013.97
2019-03-12T09:33:28.056Z,1013.89
2019-03-12T09:34:28.042Z,1013.90
2019-03-12T09:35:28.013Z,1013.86
2019-03-12T09:36:27.989Z,1013.80
2019-03-12T09:37:27.981Z,1013.83
2019-03-12T09:38:27.975Z,1013.75
2019-03-12T09:39:27.940Z,1013.79
2019-03-12T09:40:27.919Z,1013.70
2019-03-12T09:41:27.894Z,1013.75
2019-03-12T09:42:27.870Z,1013.73
2019-03-12T09:43:27.854Z,1013.68
2019-03-12T09:44:27.847Z,1013.68
2019-03-12T09:45:27.823Z,1013.64
2019-03-12T09:46:27.787Z,1013.65
2019-03-12T09:47:27.786Z,1013.63
2019-03-12T09:48:27.751Z,1013.55
2019-03-12T09:49:27.999Z,1013.53
2019-03-12T09:50:27.713Z,1013.52
2019-03-12T09:51:27.696Z,1013.55
2019-03-12T09:52:27.672Z,1013.48
2019-03-12T09:53:27.647Z,1013.48
2019-03-12T09:54:27.647Z,1013.43
2019-03-12T09:55:27.609Z,1013.33
2019-03-12T09:56:27.586Z,1013.32
2019-03-12T09:57:27.583Z,1013.41
2019-03-12T09:58:27.561Z,1013.35
2019-03-12T09:59:27.525Z,1013.35
2019-03-12T10:00:27.505Z,1013.30
2019-03-12T10:01:27.487Z,1013.35
2019-03-12T10:02:27.487Z,1013.30
2019-03-12T10:03:27.450Z,1013.22
2019-03-12T10:04:27.628Z,1013.19
2019-03-12T10:05:27.401Z,1013.16
2019-03-12T10:06:27.389Z,1013.16
2019-03-12T10:07:27.397Z,1013.04
2019-03-12T10:08:27.344Z,1013.01
2019-03-12T10:09:27.331Z,1012.97
2019-03-12T10:10:27.304Z,1012.85
2019-03-12T10:11:27.283Z,1012.92
2019-03-12T10:12:27.277Z,1012.87
2019-03-12T10:13:27.243Z,1012.90
2019-03-12T10:14:27.241Z,1012.85
2019-03-12T10:15:27.206Z,1012.80
2019-03-12T10:16:27.187Z,1012.78
2019-03-12T10:17:27.166Z,1012.75
2019-03-12T10:18:27.166Z,1012.43
2019-03-12T10:19:27.126Z,1012.62
2019-03-12T10:20:27.102Z,1012.70
2019-03-12T10:21:27.084Z,1012.60
2019-03-12T10:22:27.063Z,1012.63
2019-03-12T10:23:27.068Z,1012.45
2019-03-12T10:24:28.744Z,1012.47
2019-03-12T10:25:27.007Z,1012.53
2019-03-12T10:26:26.988Z,1012.51
2019-03-12T10:27:26.968Z,1012.44
2019-03-12T10:28:26.944Z,1012.43
2019-03-12T10:29:26.945Z,1012.41
2019-03-12T10:30:26.913Z,1012.32
2019-03-12T10:31:26.887Z,1012.13
2019-03-12T10:32:26.883Z,1012.23
2019-03-12T10:33:26.864Z,1012.21
2019-03-12T10:34:30.019Z,1012.14
2019-03-12T10:35:26.812Z,1012.22
2019-03-12T10:36:26.792Z,1012.12
2019-03-12T10:39:08.909Z,1012.18
2019-03-12T10:40:08.906Z,1012.10
2019-03-12T10:41:08.888Z,1012.11
2019-03-12T10:42:08.852Z,1012.03
2019-03-12T10:43:08.830Z,1012.03
2019-03-12T10:44:08.807Z,1012.05
2019-03-12T10:45:08.791Z,1012.05
2019-03-12T10:46:08.791Z,1011.97
2019-03-12T10:47:08.755Z,1011.86
2019-03-12T10:48:08.738Z,1011.98
2019-03-12T10:49:08.718Z,1011.97
2019-03-12T10:50:08.702Z,1012.00
2019-03-12T10:51:08.678Z,1011.86
2019-03-12T10:52:08.696Z,1011.77
2019-03-12T10:53:08.643Z,1011.75
2019-03-12T10:54:08.618Z,1011.71
2019-03-12T10:55:13.432Z,1011.80
2019-03-12T10:56:08.594Z,1011.69
2019-03-12T10:57:08.568Z,1011.72
2019-03-12T10:58:08.580Z,1011.76
2019-03-12T10:59:08.557Z,1011.64
2019-03-12T11:00:08.514Z,1011.61
2019-03-12T11:01:08.502Z,1011.59
2019-03-12T11:02:08.500Z,1011.55
2019-03-12T11:03:08.461Z,1011.54
2019-03-12T11:04:08.460Z,1011.51
2019-03-12T11:05:08.426Z,1011.43
2019-03-12T11:06:08.405Z,1011.48
2019-03-12T11:07:16.471Z,1011.43
2019-03-12T11:08:08.374Z,1011.42
2019-03-12T11:09:08.372Z,1011.47
2019-03-12T11:10:08.332Z,1011.46
2019-03-12T11:11:08.358Z,1011.42
2019-03-12T11:12:08.294Z,1011.29
2019-03-12T11:13:08.294Z,1011.41
2019-03-12T11:14:08.269Z,1011.38
2019-03-12T11:15:08.250Z,1011.39
2019-03-12T11:16:08.224Z,1011.34
2019-03-12T11:17:08.200Z,1011.30
2019-03-12T11:18:08.184Z,1011.31
2019-03-12T11:19:08.183Z,1011.30
2019-03-12T11:20:08.158Z,1011.39
2019-03-12T11:21:08.128Z,1011.26
2019-03-12T11:22:08.109Z,1011.31
2019-03-12T11:23:08.126Z,1011.26
2019-03-12T11:24:08.095Z,1011.27
2019-03-12T11:25:08.052Z,1011.24
2019-03-12T11:26:08.033Z,1011.21
2019-03-12T11:27:08.018Z,1011.21
2019-03-12T11:28:07.994Z,1011.21
2019-03-12T11:29:07.993Z,1011.11
2019-03-12T11:30:07.979Z,1011.13
2019-03-12T11:31:07.959Z,1011.13
2019-03-12T11:32:07.921Z,1010.80
2019-03-12T11:33:07.926Z,1011.05
2019-03-12T11:34:07.883Z,1010.98
2019-03-12T11:35:07.870Z,1010.97
2019-03-12T11:36:07.853Z,1011.04
2019-03-12T11:37:07.862Z,1010.88
2019-03-12T11:38:07.812Z,1010.92
2019-03-12T11:39:07.855Z,1010.69
2019-03-12T11:40:07.775Z,1010.88
2019-03-12T11:41:07.774Z,1010.81
2019-03-12T11:42:07.783Z,1010.65
2019-03-12T11:43:07.718Z,1010.76
2019-03-12T11:44:07.702Z,1010.67
2019-03-12T11:45:15.115Z,1010.74
2019-03-12T11:46:07.674Z,1010.59
2019-03-12T11:47:07.785Z,1010.65
2019-03-12T11:48:07.651Z,1010.57
2019-03-12T11:49:07.647Z,1010.59
2019-03-12T11:50:07.589Z,1010.54
2019-03-12T11:51:07.625Z,1010.53
2019-03-12T11:52:07.556Z,1010.58
2019-03-12T11:53:07.552Z,1010.62
2019-03-12T11:54:07.542Z,1010.48
2019-03-12T11:55:07.502Z,1010.51
2019-03-12T11:56:07.486Z,1010.48
2019-03-12T11:57:07.515Z,1010.39
2019-03-12T11:58:07.465Z,1010.43
2019-03-12T11:59:07.434Z,1010.35
2019-03-12T12:00:07.415Z,1010.29
2019-03-12T12:01:07.404Z,1010.37
2019-03-12T12:02:07.393Z,1010.38
2019-03-12T12:03:07.360Z,1010.16
2019-03-12T12:04:07.406Z,1010.30
2019-03-12T12:05:07.323Z,1010.29
2019-03-12T12:06:07.323Z,1010.21
2019-03-12T12:07:07.298Z,1010.10